Kerrick, TX (79051)

4:56 PM CDT on August 31, 2016 (GMT -0500)
McDaniel Farm | | Change Station

Elev 3957 ft 36.46 °N, 102.32 °W | Updated 9 seconds ago

Partly Cloudy
Partly Cloudy
80.2 °F
Feels Like 78 °F
N
0.0
Wind Variable Wind from South
Gusts 0.0 mph

Today
High -- | Low -- °F
--% Chance of Precip.
Yesterday
High -- | Low -- °F
Precip. -- in
Pressure 30.04 in
Visibility 10.0 miles
Clouds Few 3300 ft
Heat Index 78 °F
Dew Point 19 °F
Humidity 10%
Rainfall 0.00 in
Snow Depth Not available.
7:19 AM 8:17 PM
Waning Crescent, 0% visible
METAR KDHT 312153Z AUTO 16009KT 10SM FEW033 24/15 A3020 RMK AO2 SLP173 T02440150
Pressure 30.04 in
Visibility 10.0 miles
Clouds Few 3300 ft
Heat Index 78 °F
Dew Point 19 °F
Humidity 10%
Rainfall 0.00 in
Snow Depth Not available.
7:19 AM 8:17 PM
Waning Crescent, 0% visible
METAR KDHT 312153Z AUTO 16009KT 10SM FEW033 24/15 A3020 RMK AO2 SLP173 T02440150

10-Day Weather Forecast

Almanac

Astronomy

Aug. 31, 2016 Rise Set
Actual Time
Civil Twilight
Nautical Twilight
Astronomical Twilight
Moon
Length of Visible Light
Length of Day
Tomorrow will be .
, % of the Moon is Illuminated

Today's Extremes

State Highs State Lows

Community

WunderPhotos

Upload Photos

1,936,189 photos uploaded!

WunderBlog® & News

Nearby

Air Quality

  Air Quality AQ Index Pollutant
Not available.

Snow Depth

Station Depth Elevation

Earthquake Activity

City Distance Mag. Time & Date
Minimum magnitude displayed is 2.5.

Coastal Water Temperatures

Place Temperature

Stations

Nearby Weather Stations

Station Location Temp. Windchill Dew Point Humidity Wind Precip. Elev Updated Type
                   

Watches & Warnings

There are currently no watches in effect.